createdAt,value
2018-12-09T00:07:17.761Z,70.30
2018-12-09T00:12:19.987Z,68.70
2018-12-09T00:25:19.513Z,66.90
2018-12-09T00:30:17.302Z,66.80
2018-12-09T00:32:58.868Z,66.70
2018-12-09T00:41:03.001Z,65.90
2018-12-09T00:43:35.411Z,66.00
2018-12-09T00:46:04.733Z,66.30
2018-12-09T00:58:57.826Z,65.10
2018-12-09T01:01:27.562Z,64.80
2018-12-09T01:04:02.467Z,64.80
2018-12-09T01:11:39.532Z,64.70
2018-12-09T01:14:08.768Z,64.60
2018-12-09T01:16:43.870Z,64.70
2018-12-09T01:19:28.984Z,64.70
2018-12-09T01:22:12.993Z,64.70
2018-12-09T01:32:28.186Z,65.00
2018-12-09T01:34:57.693Z,65.30
2018-12-09T01:37:30.561Z,65.60
2018-12-09T01:42:32.966Z,66.70
2018-12-09T02:01:54.174Z,67.90
2018-12-09T02:04:29.838Z,68.20
2018-12-09T02:09:58.002Z,68.20
2018-12-09T02:17:30.723Z,68.60
2018-12-09T02:22:36.424Z,68.30
2018-12-09T02:33:15.959Z,68.80
2018-12-09T02:35:49.928Z,67.60
2018-12-09T02:40:57.176Z,68.80
2018-12-09T02:43:32.130Z,67.70
2018-12-09T02:48:41.313Z,67.90
2018-12-09T02:53:47.294Z,68.90
2018-12-09T02:56:21.861Z,69.50
2018-12-09T03:01:20.558Z,69.90
2018-12-09T03:03:49.747Z,71.00
2018-12-09T03:06:19.215Z,73.20
2018-12-09T03:08:48.546Z,74.20
2018-12-09T03:19:06.091Z,77.50
2018-12-09T03:21:44.739Z,76.50
2018-12-09T03:34:25.513Z,78.10
2018-12-09T03:42:14.554Z,75.60
2018-12-09T03:44:53.759Z,75.90
2018-12-09T03:54:58.589Z,72.50
2018-12-09T03:57:31.566Z,72.70
2018-12-09T04:03:12.196Z,71.70
2018-12-09T04:20:49.971Z,69.60
2018-12-09T04:26:34.362Z,69.80
2018-12-09T04:31:35.987Z,67.70
2018-12-09T04:37:05.327Z,68.10
2018-12-09T04:44:39.573Z,68.00
2018-12-09T04:49:40.854Z,68.00
2018-12-09T04:52:13.807Z,68.20
2018-12-09T04:59:48.552Z,68.60
2018-12-09T05:02:30.141Z,68.00
2018-12-09T05:05:15.756Z,67.70
2018-12-09T05:07:59.362Z,67.90
2018-12-09T05:13:16.895Z,67.30
2018-12-09T05:18:35.493Z,67.80
2018-12-09T05:23:43.435Z,66.40
2018-12-09T05:31:50.101Z,69.20
2018-12-09T05:34:31.370Z,69.90
2018-12-09T05:39:33.514Z,72.00
2018-12-09T05:44:36.205Z,70.60
2018-12-09T05:47:05.344Z,70.90
2018-12-09T05:49:38.243Z,71.60
2018-12-09T05:52:19.628Z,72.30
2018-12-09T06:02:44.299Z,79.30
2018-12-09T06:07:54.430Z,82.70
2018-12-09T06:33:47.506Z,89.10
2018-12-09T06:36:17.493Z,89.30
2018-12-09T06:46:25.951Z,90.10
2018-12-09T06:48:55.234Z,90.20
2018-12-09T06:51:24.469Z,90.30
2018-12-09T07:06:57.600Z,89.70
2018-12-09T07:56:06.590Z,86.90
2018-12-09T08:04:11.397Z,87.50
2018-12-09T08:11:46.645Z,85.90
2018-12-09T08:16:54.636Z,86.20
2018-12-09T08:27:10.374Z,83.90
2018-12-09T08:32:08.408Z,82.50
2018-12-09T08:42:07.654Z,80.60
2018-12-09T08:49:43.895Z,80.80
2018-12-09T08:57:24.094Z,78.70
2018-12-09T09:02:58.127Z,77.50
2018-12-09T09:10:43.294Z,77.30
2018-12-09T09:13:12.391Z,77.20
2018-12-09T09:15:42.247Z,76.00
2018-12-09T09:30:54.636Z,75.10
2018-12-09T09:33:23.729Z,75.50
2018-12-09T09:35:52.931Z,73.90
2018-12-09T09:40:50.630Z,73.70
2018-12-09T09:48:17.987Z,73.80
2018-12-09T09:50:47.239Z,72.90
2018-12-09T09:53:16.372Z,72.10
2018-12-09T09:55:45.523Z,71.60
2018-12-09T10:00:43.461Z,70.80
2018-12-09T10:03:12.819Z,70.50
2018-12-09T10:08:22.894Z,68.80
2018-12-09T10:13:21.351Z,68.40
2018-12-09T10:15:50.503Z,68.60
2018-12-09T10:20:48.601Z,69.40
2018-12-09T10:28:17.288Z,66.20
2018-12-09T10:33:15.419Z,65.30
2018-12-09T10:38:31.814Z,65.80
2018-12-09T10:41:00.921Z,65.90
2018-12-09T10:43:30.049Z,65.10
2018-12-09T10:45:59.538Z,65.80
2018-12-09T10:50:57.613Z,65.20
2018-12-09T11:01:12.516Z,66.30
2018-12-09T11:03:41.555Z,66.40
2018-12-09T11:06:10.929Z,67.40
2018-12-09T11:11:09.951Z,68.00
2018-12-09T11:16:08.476Z,66.40
2018-12-09T11:18:37.959Z,66.60
2018-12-09T11:23:36.026Z,65.70
2018-12-09T11:26:14.975Z,63.90
2018-12-09T11:28:45.082Z,66.50
2018-12-09T11:31:14.242Z,64.40
2018-12-09T11:33:43.477Z,65.80
2018-12-09T11:36:12.579Z,64.80
2018-12-09T11:41:16.625Z,65.70
2018-12-09T11:43:45.853Z,66.80
2018-12-09T11:48:43.898Z,65.50
2018-12-09T11:53:49.157Z,66.70
2018-12-09T11:56:18.275Z,66.00
2018-12-09T12:06:31.340Z,67.00
2018-12-09T12:11:46.103Z,69.40
2018-12-09T12:16:51.616Z,67.70
2018-12-09T12:19:21.226Z,68.80
2018-12-09T12:22:05.315Z,68.30
2018-12-09T12:24:34.684Z,69.00
2018-12-09T12:29:33.576Z,70.20
2018-12-09T12:34:42.291Z,71.70
2018-12-09T12:47:25.202Z,76.10
2018-12-09T12:49:54.910Z,77.00
2018-12-09T12:57:23.980Z,77.20
2018-12-09T12:59:53.161Z,77.00
2018-12-09T13:05:25.439Z,76.60
2018-12-09T13:07:54.605Z,76.70
2018-12-09T13:12:54.130Z,76.10
2018-12-09T13:15:23.352Z,76.00
2018-12-09T13:17:52.576Z,75.60
2018-12-09T13:22:50.339Z,76.30
2018-12-09T13:28:18.930Z,76.80
2018-12-09T13:33:23.173Z,76.70
2018-12-09T13:43:51.467Z,77.70
2018-12-09T13:51:21.788Z,76.90
2018-12-09T13:53:52.031Z,76.30
2018-12-09T13:58:51.964Z,77.20
2018-12-09T14:01:21.096Z,77.30
2018-12-09T14:03:53.728Z,76.90
2018-12-09T14:11:21.832Z,76.40
2018-12-09T14:26:37.947Z,77.00
2018-12-09T14:29:07.313Z,77.20
2018-12-09T14:31:43.467Z,76.70
2018-12-09T14:34:12.740Z,77.00
2018-12-09T14:36:45.300Z,77.30
2018-12-09T14:39:14.444Z,77.60
2018-12-09T14:46:52.566Z,77.00
2018-12-09T14:49:21.911Z,77.30
2018-12-09T14:51:51.693Z,77.60
2018-12-09T15:04:22.375Z,76.10
2018-12-09T15:06:51.530Z,76.10
2018-12-09T15:09:20.930Z,76.90
2018-12-09T15:11:58.502Z,76.30
2018-12-09T15:14:33.115Z,77.20
2018-12-09T15:17:05.819Z,77.00
2018-12-09T15:22:04.287Z,77.60
2018-12-09T15:24:41.328Z,78.20
2018-12-09T15:27:13.923Z,78.70
2018-12-09T15:39:54.351Z,79.50
2018-12-09T15:42:33.007Z,79.90
2018-12-09T15:45:08.335Z,79.80
2018-12-09T15:47:38.765Z,79.20
2018-12-09T15:50:15.164Z,79.50
2018-12-09T15:53:00.832Z,79.80
2018-12-09T15:55:30.026Z,80.50
2018-12-09T16:01:03.032Z,81.10
2018-12-09T16:06:08.572Z,80.90
2018-12-09T16:08:43.880Z,81.50
2018-12-09T16:11:17.029Z,82.20
2018-12-09T16:13:55.839Z,80.40
2018-12-09T16:19:18.356Z,80.00
2018-12-09T16:34:54.092Z,79.60
2018-12-09T16:37:23.467Z,79.00
2018-12-09T16:44:54.438Z,79.90
2018-12-09T16:47:36.119Z,80.60
2018-12-09T16:50:12.198Z,79.80
2018-12-09T16:55:20.243Z,80.40
2018-12-09T17:03:28.507Z,78.80
2018-12-09T17:08:27.814Z,79.20
2018-12-09T17:13:42.742Z,78.60
2018-12-09T17:16:24.404Z,78.60
2018-12-09T17:26:25.642Z,78.60
2018-12-09T17:28:54.886Z,78.20
2018-12-09T17:43:55.981Z,78.30
2018-12-09T17:49:06.214Z,79.40
2018-12-09T17:51:35.479Z,80.10
2018-12-09T17:59:03.757Z,81.40
2018-12-09T18:09:15.077Z,83.00
2018-12-09T18:14:23.372Z,83.50
2018-12-09T18:16:52.530Z,82.90
2018-12-09T18:21:56.755Z,83.00
2018-12-09T18:29:34.493Z,83.50
2018-12-09T18:32:07.655Z,85.50
2018-12-09T18:37:18.542Z,83.70
2018-12-09T18:39:51.365Z,81.90
2018-12-09T18:42:24.657Z,83.00
2018-12-09T19:13:36.544Z,82.30
2018-12-09T19:18:49.970Z,82.80
2018-12-09T19:45:16.916Z,81.70
2018-12-09T19:47:46.612Z,81.20
2018-12-09T19:50:19.207Z,81.10
2018-12-09T19:55:40.554Z,81.60
2018-12-09T20:06:35.470Z,83.40
2018-12-09T20:09:06.021Z,81.90
2018-12-09T20:22:02.766Z,81.80
2018-12-09T20:24:34.168Z,80.80
2018-12-09T20:30:10.256Z,81.10
2018-12-09T20:35:17.747Z,81.30
2018-12-09T20:37:53.053Z,81.40
2018-12-09T20:43:06.361Z,81.50
2018-12-09T20:50:47.691Z,81.70
2018-12-09T20:58:43.127Z,81.70
2018-12-09T21:01:12.409Z,81.60
2018-12-09T21:03:47.401Z,80.90
2018-12-09T21:06:16.547Z,81.00
2018-12-09T21:13:57.493Z,80.50
2018-12-09T21:21:43.326Z,80.00
2018-12-09T21:24:12.599Z,79.90
2018-12-09T21:29:19.547Z,79.30
2018-12-09T21:39:55.938Z,81.20
2018-12-09T21:50:24.062Z,80.00
2018-12-09T21:53:09.421Z,80.00
2018-12-09T22:09:06.252Z,81.70
2018-12-09T22:11:41.516Z,82.10
2018-12-09T22:14:15.143Z,82.70
2018-12-09T22:16:47.966Z,83.60
2018-12-09T22:24:26.210Z,85.70
2018-12-09T22:29:35.159Z,87.00
2018-12-09T22:50:24.809Z,90.10
2018-12-09T22:53:00.182Z,89.00
2018-12-09T22:55:33.243Z,88.10
2018-12-09T23:10:35.599Z,87.50
2018-12-09T23:13:08.144Z,87.50
2018-12-09T23:15:40.303Z,87.20
2018-12-09T23:18:16.857Z,87.00
2018-12-09T23:25:59.565Z,85.60
2018-12-09T23:36:10.290Z,85.90
2018-12-09T23:38:39.479Z,86.10
2018-12-09T23:41:11.894Z,86.30
2018-12-09T23:46:33.751Z,86.30
2018-12-09T23:49:20.749Z,85.90
2018-12-09T23:52:02.514Z,85.60
2018-12-09T23:54:35.601Z,85.70
